createdAt,value
2023-05-02T00:03:37.671Z,6.25
2023-05-02T00:08:40.721Z,6.21
2023-05-02T00:13:44.263Z,6.16
2023-05-02T00:18:47.032Z,6.11
2023-05-02T00:23:51.412Z,6.09
2023-05-02T00:28:54.235Z,6.07
2023-05-02T00:33:57.306Z,6.08
2023-05-02T00:39:00.048Z,6.08
2023-05-02T00:44:02.934Z,6.07
2023-05-02T00:49:06.083Z,6.05
2023-05-02T00:54:08.952Z,6.03
2023-05-02T00:59:12.324Z,6.01
2023-05-02T01:04:50.788Z,6.02
2023-05-02T01:10:11.952Z,6.05
2023-05-02T01:15:22.564Z,6.06
2023-05-02T01:20:28.773Z,6.10
2023-05-02T01:25:55.193Z,6.15
2023-05-02T01:30:59.567Z,6.23
2023-05-02T01:36:03.832Z,6.28
2023-05-02T01:41:08.288Z,6.31
2023-05-02T01:46:14.467Z,6.35
2023-05-02T01:51:19.364Z,6.38
2023-05-02T01:56:25.370Z,6.37
2023-05-02T02:01:31.311Z,6.37
2023-05-02T02:06:35.035Z,6.35
2023-05-02T02:11:46.165Z,6.33
2023-05-02T02:16:53.673Z,6.31
2023-05-02T02:21:59.025Z,6.29
2023-05-02T02:27:02.621Z,6.26
2023-05-02T02:32:05.669Z,6.20
2023-05-02T02:37:49.928Z,6.17
2023-05-02T02:43:17.031Z,6.15
2023-05-02T02:48:27.944Z,6.14
2023-05-02T02:54:23.033Z,6.13
2023-05-02T02:59:34.175Z,6.10
2023-05-02T03:04:42.322Z,6.07
2023-05-02T03:09:47.441Z,6.06
2023-05-02T03:14:50.351Z,6.08
2023-05-02T03:19:53.166Z,6.10
2023-05-02T03:24:55.944Z,6.14
2023-05-02T03:29:58.884Z,6.24
2023-05-02T03:35:01.810Z,6.38
2023-05-02T03:40:05.161Z,6.49
2023-05-02T03:45:08.989Z,6.56
2023-05-02T03:50:11.804Z,6.66
2023-05-02T03:55:14.613Z,6.75
2023-05-02T04:00:17.705Z,6.84
2023-05-02T04:05:20.558Z,6.94
2023-05-02T04:10:23.348Z,7.04
2023-05-02T04:15:26.159Z,7.13
2023-05-02T04:20:29.561Z,7.23
2023-05-02T04:25:32.380Z,7.33
2023-05-02T04:30:36.255Z,7.45
2023-05-02T04:35:41.943Z,7.60
2023-05-02T04:40:44.775Z,7.79
2023-05-02T04:45:47.510Z,8.00
2023-05-02T04:50:50.388Z,8.26
2023-05-02T04:55:53.178Z,8.51
2023-05-02T05:00:55.932Z,8.73
2023-05-02T05:05:59.053Z,9.02
2023-05-02T05:11:02.187Z,9.45
2023-05-02T05:16:05.317Z,9.98
2023-05-02T05:21:08.443Z,10.43
2023-05-02T05:26:16.388Z,10.79
2023-05-02T05:31:19.148Z,11.18
2023-05-02T05:36:23.570Z,11.48
2023-05-02T05:41:26.793Z,11.72
2023-05-02T05:46:29.627Z,11.90
2023-05-02T05:51:32.418Z,12.04
2023-05-02T05:56:35.426Z,12.09
2023-05-02T06:01:38.326Z,11.98
2023-05-02T06:06:41.219Z,12.02
2023-05-02T06:11:43.981Z,12.34
2023-05-02T06:16:46.709Z,12.82
2023-05-02T06:21:49.513Z,13.29
2023-05-02T06:26:52.243Z,13.66
2023-05-02T06:31:57.062Z,13.83
2023-05-02T06:37:00.421Z,14.01
2023-05-02T06:42:03.615Z,14.26
2023-05-02T06:47:07.650Z,14.45
2023-05-02T06:52:10.556Z,14.36
2023-05-02T06:57:13.235Z,14.06
2023-05-02T07:02:15.989Z,13.79
2023-05-02T07:07:20.666Z,13.56
2023-05-02T07:12:23.426Z,13.43
2023-05-02T07:17:26.439Z,13.40
2023-05-02T07:22:29.226Z,13.36
2023-05-02T07:27:32.039Z,13.42
2023-05-02T07:32:34.828Z,13.41
2023-05-02T07:37:37.688Z,13.33
2023-05-02T07:42:41.916Z,13.16
2023-05-02T07:47:45.892Z,12.95
2023-05-02T07:52:48.734Z,12.77
2023-05-02T07:57:51.497Z,12.62
2023-05-02T08:02:54.308Z,12.65
2023-05-02T08:07:57.170Z,12.79
2023-05-02T08:12:59.994Z,12.93
2023-05-02T08:18:03.070Z,13.18
2023-05-02T08:23:05.962Z,13.42
2023-05-02T08:28:08.738Z,13.86
2023-05-02T08:33:11.713Z,14.28
2023-05-02T08:38:14.523Z,14.46
2023-05-02T08:43:17.255Z,14.45
2023-05-02T08:48:21.066Z,14.45
2023-05-02T08:53:24.991Z,14.36
2023-05-02T08:58:27.849Z,14.14
2023-05-02T09:03:34.089Z,14.10
2023-05-02T09:08:37.619Z,14.14
2023-05-02T09:13:42.964Z,14.24
2023-05-02T09:18:48.234Z,14.15
2023-05-02T09:23:55.731Z,13.94
2023-05-02T09:29:00.402Z,13.59
2023-05-02T09:34:11.596Z,13.24
2023-05-02T09:39:23.761Z,12.96
2023-05-02T09:44:37.516Z,12.87
2023-05-02T09:49:40.193Z,13.13
2023-05-02T09:54:43.103Z,13.67
2023-05-02T09:59:55.863Z,14.11
2023-05-02T10:05:01.530Z,14.53
2023-05-02T10:10:06.498Z,15.05
2023-05-02T10:15:12.586Z,15.48
2023-05-02T10:20:22.652Z,15.95
2023-05-02T10:25:25.624Z,16.48
2023-05-02T10:30:31.079Z,16.90
2023-05-02T10:35:36.453Z,17.19
2023-05-02T10:40:41.163Z,17.22
2023-05-02T10:45:43.976Z,17.24
2023-05-02T10:50:55.540Z,17.31
2023-05-02T10:56:28.450Z,17.27
2023-05-02T11:01:37.985Z,17.49
2023-05-02T11:07:05.493Z,17.85
2023-05-02T11:12:08.788Z,18.24
2023-05-02T11:17:11.722Z,18.55
2023-05-02T11:22:17.700Z,18.61
2023-05-02T11:27:33.671Z,18.57
2023-05-02T11:32:45.850Z,18.67
2023-05-02T11:38:03.468Z,18.72
2023-05-02T11:43:17.902Z,19.26
2023-05-02T11:48:22.789Z,19.66
2023-05-02T11:53:29.392Z,19.70
2023-05-02T11:58:33.765Z,20.00
2023-05-02T12:03:37.382Z,20.10
2023-05-02T12:08:41.651Z,19.46
2023-05-02T12:13:47.140Z,18.85
2023-05-02T12:18:50.428Z,18.42
2023-05-02T12:23:53.722Z,18.13
2023-05-02T12:28:57.290Z,18.01
2023-05-02T12:34:01.419Z,18.00
2023-05-02T12:39:04.735Z,18.15
2023-05-02T12:44:08.016Z,18.45
2023-05-02T12:49:12.467Z,18.71
2023-05-02T12:54:21.398Z,18.43
2023-05-02T12:59:28.985Z,17.98
2023-05-02T13:04:40.312Z,17.90
2023-05-02T13:09:43.109Z,18.00
2023-05-02T13:14:45.998Z,17.99
2023-05-02T13:19:58.137Z,17.81
2023-05-02T13:25:05.695Z,17.32
2023-05-02T13:30:09.962Z,16.89
2023-05-02T13:35:14.239Z,16.55
2023-05-02T13:40:17.093Z,16.23
2023-05-02T13:45:20.101Z,16.02
2023-05-02T13:50:23.192Z,16.12
2023-05-02T13:55:26.251Z,16.57
2023-05-02T14:00:29.449Z,17.31
2023-05-02T14:05:32.196Z,17.75
2023-05-02T14:10:36.477Z,17.91
2023-05-02T14:15:39.213Z,17.95
2023-05-02T14:20:42.381Z,17.78
2023-05-02T14:25:45.133Z,17.46
2023-05-02T14:30:51.491Z,17.54
2023-05-02T14:35:54.326Z,17.05
2023-05-02T14:40:57.172Z,16.50
2023-05-02T14:46:00.036Z,15.89
2023-05-02T14:51:04.137Z,15.33
2023-05-02T14:56:12.530Z,14.91
2023-05-02T15:01:20.560Z,14.51
2023-05-02T15:06:23.382Z,13.89
2023-05-02T15:11:26.167Z,13.20
2023-05-02T15:16:29.941Z,12.62
2023-05-02T15:21:32.908Z,12.08
2023-05-02T15:26:35.890Z,11.73
2023-05-02T15:31:38.699Z,11.46
2023-05-02T15:36:41.606Z,11.31
2023-05-02T15:41:47.814Z,11.05
2023-05-02T15:46:50.805Z,10.87
2023-05-02T15:51:53.543Z,10.73
2023-05-02T15:56:56.372Z,10.65
2023-05-02T16:01:59.181Z,10.59
2023-05-02T16:07:02.507Z,10.60
2023-05-02T16:12:07.053Z,10.46
2023-05-02T16:17:09.834Z,10.31
2023-05-02T16:22:12.709Z,10.27
2023-05-02T16:27:15.753Z,10.29
2023-05-02T16:32:18.568Z,10.24
2023-05-02T16:37:21.430Z,10.12
2023-05-02T16:42:24.417Z,10.05
2023-05-02T16:47:28.391Z,10.04
2023-05-02T16:52:31.485Z,10.07
2023-05-02T16:57:34.311Z,10.26
2023-05-02T17:02:37.180Z,10.50
2023-05-02T17:07:40.176Z,10.75
2023-05-02T17:12:44.112Z,11.84
2023-05-02T17:17:46.896Z,12.92
2023-05-02T17:22:49.728Z,13.02
2023-05-02T17:27:52.546Z,13.07
2023-05-02T17:32:55.349Z,12.96
2023-05-02T17:37:58.206Z,12.43
2023-05-02T17:43:01.671Z,11.72
2023-05-02T17:48:04.497Z,11.19
2023-05-02T17:53:08.358Z,10.67
2023-05-02T17:58:11.133Z,10.15
2023-05-02T18:03:13.965Z,9.72
2023-05-02T18:08:17.052Z,9.35
2023-05-02T18:13:19.826Z,9.02
2023-05-02T18:18:22.709Z,8.83
2023-05-02T18:23:25.442Z,8.73
2023-05-02T18:28:28.235Z,8.64
2023-05-02T18:33:31.277Z,8.54
2023-05-02T18:38:36.120Z,8.42
2023-05-02T18:43:38.872Z,8.28
2023-05-02T18:48:41.641Z,8.12
2023-05-02T18:53:44.559Z,7.99
2023-05-02T18:58:49.081Z,7.94
2023-05-02T19:03:54.955Z,7.88
2023-05-02T19:08:58.779Z,7.80
2023-05-02T19:14:03.635Z,7.71
2023-05-02T19:19:07.248Z,7.62
2023-05-02T19:24:09.998Z,7.54
2023-05-02T19:29:13.033Z,7.48
2023-05-02T19:34:16.342Z,7.42
2023-05-02T19:39:19.284Z,7.36
2023-05-02T19:44:22.098Z,7.31
2023-05-02T19:49:24.841Z,7.29
2023-05-02T19:54:27.648Z,7.28
2023-05-02T19:59:30.505Z,7.23
2023-05-02T20:04:33.247Z,7.15
2023-05-02T20:09:36.095Z,7.05
2023-05-02T20:14:40.902Z,6.93
2023-05-02T20:19:45.443Z,6.82
2023-05-02T20:24:48.240Z,6.73
2023-05-02T20:29:52.074Z,6.63
2023-05-02T20:34:54.855Z,6.49
2023-05-02T20:39:57.757Z,6.36
2023-05-02T20:45:02.271Z,6.22
2023-05-02T20:50:09.445Z,6.06
2023-05-02T20:55:12.220Z,5.84
2023-05-02T21:00:15.654Z,5.64
2023-05-02T21:05:18.527Z,5.46
2023-05-02T21:10:22.579Z,5.25
2023-05-02T21:15:25.430Z,5.03
2023-05-02T21:20:28.339Z,4.86
2023-05-02T21:25:31.194Z,4.73
2023-05-02T21:30:35.104Z,4.57
2023-05-02T21:35:37.818Z,4.36
2023-05-02T21:40:40.776Z,4.12
2023-05-02T21:45:47.514Z,3.88
2023-05-02T21:50:51.022Z,3.71
2023-05-02T21:55:53.801Z,3.61
2023-05-02T22:00:56.646Z,3.55
2023-05-02T22:06:04.959Z,3.46
2023-05-02T22:11:09.391Z,3.35
2023-05-02T22:16:12.260Z,3.25
2023-05-02T22:21:16.026Z,3.16
2023-05-02T22:26:18.752Z,3.04
2023-05-02T22:31:21.751Z,2.85
2023-05-02T22:36:24.593Z,2.65
2023-05-02T22:41:27.350Z,2.51
2023-05-02T22:46:30.217Z,2.42
2023-05-02T22:51:33.516Z,2.32
2023-05-02T22:56:36.243Z,2.19
2023-05-02T23:01:39.069Z,2.07
2023-05-02T23:06:41.908Z,1.98
2023-05-02T23:11:44.654Z,1.85
2023-05-02T23:16:49.952Z,1.71
2023-05-02T23:21:52.687Z,1.59
2023-05-02T23:26:55.555Z,1.48
2023-05-02T23:31:58.656Z,1.35
2023-05-02T23:37:01.611Z,1.18
2023-05-02T23:42:04.537Z,1.05
2023-05-02T23:47:07.640Z,0.90
2023-05-02T23:52:10.889Z,0.73
2023-05-02T23:57:13.648Z,0.55
